sensor_id;sensor_type;location;lat;lon;timestamp;temperature;humidity
8862;DHT22;4799;50.996;4.754;2023-08-06T00:00:24;15.60;99.90
8862;DHT22;4799;50.996;4.754;2023-08-06T00:02:50;15.60;99.90
8862;DHT22;4799;50.996;4.754;2023-08-06T00:05:16;15.60;99.90
8862;DHT22;4799;50.996;4.754;2023-08-06T00:07:50;15.60;99.90
8862;DHT22;4799;50.996;4.754;2023-08-06T00:10:16;15.60;99.90
8862;DHT22;4799;50.996;4.754;2023-08-06T00:12:43;15.60;99.90
8862;DHT22;4799;50.996;4.754;2023-08-06T00:15:09;15.60;99.90
8862;DHT22;4799;50.996;4.754;2023-08-06T00:17:35;15.60;99.90
8862;DHT22;4799;50.996;4.754;2023-08-06T00:20:04;15.60;99.90
8862;DHT22;4799;50.996;4.754;2023-08-06T00:22:36;15.60;99.90
8862;DHT22;4799;50.996;4.754;2023-08-06T00:25:03;15.60;99.90
8862;DHT22;4799;50.996;4.754;2023-08-06T00:27:29;15.60;99.90
8862;DHT22;4799;50.996;4.754;2023-08-06T00:29:55;15.50;99.90
8862;DHT22;4799;50.996;4.754;2023-08-06T00:32:21;15.60;99.90
8862;DHT22;4799;50.996;4.754;2023-08-06T00:34:47;15.60;99.90
8862;DHT22;4799;50.996;4.754;2023-08-06T00:37:15;15.60;99.90
8862;DHT22;4799;50.996;4.754;2023-08-06T00:39:42;15.60;99.90
8862;DHT22;4799;50.996;4.754;2023-08-06T00:42:09;15.60;99.90
8862;DHT22;4799;50.996;4.754;2023-08-06T00:44:35;15.60;99.90
8862;DHT22;4799;50.996;4.754;2023-08-06T00:47:01;15.60;99.90
8862;DHT22;4799;50.996;4.754;2023-08-06T00:49:27;15.50;99.90
8862;DHT22;4799;50.996;4.754;2023-08-06T00:51:53;15.50;99.90
8862;DHT22;4799;50.996;4.754;2023-08-06T00:54:20;15.60;99.90
8862;DHT22;4799;50.996;4.754;2023-08-06T00:56:46;15.60;99.90
8862;DHT22;4799;50.996;4.754;2023-08-06T00:59:12;15.50;99.90
8862;DHT22;4799;50.996;4.754;2023-08-06T01:01:38;15.60;99.90
8862;DHT22;4799;50.996;4.754;2023-08-06T01:04:04;15.60;99.90
8862;DHT22;4799;50.996;4.754;2023-08-06T01:06:49;15.60;99.90
8862;DHT22;4799;50.996;4.754;2023-08-06T01:09:50;15.60;99.90
8862;DHT22;4799;50.996;4.754;2023-08-06T01:12:24;15.60;99.90
8862;DHT22;4799;50.996;4.754;2023-08-06T01:15:15;15.60;99.90
8862;DHT22;4799;50.996;4.754;2023-08-06T01:17:43;15.60;99.90
8862;DHT22;4799;50.996;4.754;2023-08-06T01:20:09;15.60;99.90
8862;DHT22;4799;50.996;4.754;2023-08-06T01:22:35;15.60;99.90
8862;DHT22;4799;50.996;4.754;2023-08-06T01:25:01;15.60;99.90
8862;DHT22;4799;50.996;4.754;2023-08-06T01:27:37;15.50;99.90
8862;DHT22;4799;50.996;4.754;2023-08-06T01:30:12;15.50;99.90
8862;DHT22;4799;50.996;4.754;2023-08-06T01:32:43;15.50;99.90
8862;DHT22;4799;50.996;4.754;2023-08-06T01:35:11;15.50;99.90
8862;DHT22;4799;50.996;4.754;2023-08-06T01:37:38;15.50;99.90
8862;DHT22;4799;50.996;4.754;2023-08-06T01:40:13;15.50;99.90
8862;DHT22;4799;50.996;4.754;2023-08-06T01:42:39;15.50;99.90
8862;DHT22;4799;50.996;4.754;2023-08-06T01:45:06;15.50;99.90
8862;DHT22;4799;50.996;4.754;2023-08-06T01:47:33;15.60;99.90
8862;DHT22;4799;50.996;4.754;2023-08-06T01:49:59;15.60;99.90
8862;DHT22;4799;50.996;4.754;2023-08-06T01:52:26;15.50;99.90
8862;DHT22;4799;50.996;4.754;2023-08-06T01:54:52;15.60;99.90
8862;DHT22;4799;50.996;4.754;2023-08-06T01:57:17;15.60;99.90
8862;DHT22;4799;50.996;4.754;2023-08-06T01:59:43;15.60;99.90
8862;DHT22;4799;50.996;4.754;2023-08-06T02:02:09;15.60;99.90
8862;DHT22;4799;50.996;4.754;2023-08-06T02:04:35;15.60;99.90
8862;DHT22;4799;50.996;4.754;2023-08-06T02:07:00;15.60;99.90
8862;DHT22;4799;50.996;4.754;2023-08-06T02:09:26;15.60;99.90
8862;DHT22;4799;50.996;4.754;2023-08-06T02:11:52;15.60;99.90
8862;DHT22;4799;50.996;4.754;2023-08-06T02:14:17;15.60;99.90
8862;DHT22;4799;50.996;4.754;2023-08-06T02:16:43;15.60;99.90
8862;DHT22;4799;50.996;4.754;2023-08-06T02:19:09;15.60;99.90
8862;DHT22;4799;50.996;4.754;2023-08-06T02:21:34;15.60;99.90
8862;DHT22;4799;50.996;4.754;2023-08-06T02:24:00;15.60;99.90
8862;DHT22;4799;50.996;4.754;2023-08-06T02:26:26;15.60;99.90
8862;DHT22;4799;50.996;4.754;2023-08-06T02:28:52;15.60;99.90
8862;DHT22;4799;50.996;4.754;2023-08-06T02:31:17;15.60;99.90
8862;DHT22;4799;50.996;4.754;2023-08-06T02:33:43;15.60;99.90
8862;DHT22;4799;50.996;4.754;2023-08-06T02:36:08;15.60;99.90
8862;DHT22;4799;50.996;4.754;2023-08-06T02:38:34;15.60;99.90
8862;DHT22;4799;50.996;4.754;2023-08-06T02:41:02;15.70;99.90
8862;DHT22;4799;50.996;4.754;2023-08-06T02:43:29;15.60;99.90
8862;DHT22;4799;50.996;4.754;2023-08-06T02:45:58;15.70;99.90
8862;DHT22;4799;50.996;4.754;2023-08-06T02:48:24;15.60;99.90
8862;DHT22;4799;50.996;4.754;2023-08-06T02:50:50;15.70;99.90
8862;DHT22;4799;50.996;4.754;2023-08-06T02:53:15;15.70;99.90
8862;DHT22;4799;50.996;4.754;2023-08-06T02:55:46;15.70;99.90
8862;DHT22;4799;50.996;4.754;2023-08-06T02:58:16;15.70;99.90
8862;DHT22;4799;50.996;4.754;2023-08-06T03:00:43;15.70;99.90
8862;DHT22;4799;50.996;4.754;2023-08-06T03:03:09;15.70;99.90
8862;DHT22;4799;50.996;4.754;2023-08-06T03:05:35;15.70;99.90
8862;DHT22;4799;50.996;4.754;2023-08-06T03:08:01;15.70;99.90
8862;DHT22;4799;50.996;4.754;2023-08-06T03:10:27;15.70;99.90
8862;DHT22;4799;50.996;4.754;2023-08-06T03:12:52;15.60;99.90
8862;DHT22;4799;50.996;4.754;2023-08-06T03:15:18;15.70;99.90
8862;DHT22;4799;50.996;4.754;2023-08-06T03:17:44;15.60;99.90
8862;DHT22;4799;50.996;4.754;2023-08-06T03:20:10;15.60;99.90
8862;DHT22;4799;50.996;4.754;2023-08-06T03:22:36;15.60;99.90
8862;DHT22;4799;50.996;4.754;2023-08-06T03:25:02;15.60;99.90
8862;DHT22;4799;50.996;4.754;2023-08-06T03:27:28;15.60;99.90
8862;DHT22;4799;50.996;4.754;2023-08-06T03:29:54;15.60;99.90
8862;DHT22;4799;50.996;4.754;2023-08-06T03:32:20;15.50;99.90
8862;DHT22;4799;50.996;4.754;2023-08-06T03:34:45;15.60;99.90
8862;DHT22;4799;50.996;4.754;2023-08-06T03:37:11;15.50;99.90
8862;DHT22;4799;50.996;4.754;2023-08-06T03:39:37;15.50;99.90
8862;DHT22;4799;50.996;4.754;2023-08-06T03:42:03;15.60;99.90
8862;DHT22;4799;50.996;4.754;2023-08-06T03:44:29;15.50;99.90
8862;DHT22;4799;50.996;4.754;2023-08-06T03:46:56;15.50;99.90
8862;DHT22;4799;50.996;4.754;2023-08-06T03:49:21;15.50;99.90
8862;DHT22;4799;50.996;4.754;2023-08-06T03:51:47;15.60;99.90
8862;DHT22;4799;50.996;4.754;2023-08-06T03:54:13;15.50;99.90
8862;DHT22;4799;50.996;4.754;2023-08-06T03:56:38;15.50;99.90
8862;DHT22;4799;50.996;4.754;2023-08-06T03:59:04;15.50;99.90
8862;DHT22;4799;50.996;4.754;2023-08-06T04:01:30;15.50;99.90
8862;DHT22;4799;50.996;4.754;2023-08-06T04:03:55;15.50;99.90
8862;DHT22;4799;50.996;4.754;2023-08-06T04:06:21;15.50;99.90
8862;DHT22;4799;50.996;4.754;2023-08-06T04:08:47;15.50;99.90
8862;DHT22;4799;50.996;4.754;2023-08-06T04:11:12;15.50;99.90
8862;DHT22;4799;50.996;4.754;2023-08-06T04:13:41;15.50;99.90
8862;DHT22;4799;50.996;4.754;2023-08-06T04:16:07;15.50;99.90
8862;DHT22;4799;50.996;4.754;2023-08-06T04:18:33;15.50;99.90
8862;DHT22;4799;50.996;4.754;2023-08-06T04:20:58;15.50;99.90
8862;DHT22;4799;50.996;4.754;2023-08-06T04:23:24;15.50;99.90
8862;DHT22;4799;50.996;4.754;2023-08-06T04:25:50;15.50;99.90
8862;DHT22;4799;50.996;4.754;2023-08-06T04:28:16;15.50;99.90
8862;DHT22;4799;50.996;4.754;2023-08-06T04:30:41;15.50;99.90
8862;DHT22;4799;50.996;4.754;2023-08-06T04:33:07;15.50;99.90
8862;DHT22;4799;50.996;4.754;2023-08-06T04:35:33;15.50;99.90
8862;DHT22;4799;50.996;4.754;2023-08-06T04:37:58;15.40;99.90
8862;DHT22;4799;50.996;4.754;2023-08-06T04:40:24;15.40;99.90
8862;DHT22;4799;50.996;4.754;2023-08-06T04:42:50;15.40;99.90
8862;DHT22;4799;50.996;4.754;2023-08-06T04:45:15;15.30;99.90
8862;DHT22;4799;50.996;4.754;2023-08-06T04:47:41;15.20;99.90
8862;DHT22;4799;50.996;4.754;2023-08-06T04:50:08;15.20;99.90
8862;DHT22;4799;50.996;4.754;2023-08-06T04:52:33;15.20;99.90
8862;DHT22;4799;50.996;4.754;2023-08-06T04:54:59;15.10;99.90
8862;DHT22;4799;50.996;4.754;2023-08-06T04:57:25;15.10;99.90
8862;DHT22;4799;50.996;4.754;2023-08-06T04:59:50;15.00;99.90
8862;DHT22;4799;50.996;4.754;2023-08-06T05:02:16;15.00;99.90
8862;DHT22;4799;50.996;4.754;2023-08-06T05:04:42;14.90;99.90
8862;DHT22;4799;50.996;4.754;2023-08-06T05:07:08;14.80;99.90
8862;DHT22;4799;50.996;4.754;2023-08-06T05:09:33;14.70;99.90
8862;DHT22;4799;50.996;4.754;2023-08-06T05:12:04;14.60;99.90
8862;DHT22;4799;50.996;4.754;2023-08-06T05:14:29;14.50;99.90
8862;DHT22;4799;50.996;4.754;2023-08-06T05:16:55;14.40;99.90
8862;DHT22;4799;50.996;4.754;2023-08-06T05:19:21;14.40;99.90
8862;DHT22;4799;50.996;4.754;2023-08-06T05:21:46;14.30;99.90
8862;DHT22;4799;50.996;4.754;2023-08-06T05:24:12;14.30;99.90
8862;DHT22;4799;50.996;4.754;2023-08-06T05:26:38;14.30;99.90
8862;DHT22;4799;50.996;4.754;2023-08-06T05:29:03;14.30;99.90
8862;DHT22;4799;50.996;4.754;2023-08-06T05:31:29;14.30;99.90
8862;DHT22;4799;50.996;4.754;2023-08-06T05:33:55;14.30;99.90
8862;DHT22;4799;50.996;4.754;2023-08-06T05:36:21;14.30;99.90
8862;DHT22;4799;50.996;4.754;2023-08-06T05:38:47;14.30;99.90
8862;DHT22;4799;50.996;4.754;2023-08-06T05:41:13;14.20;99.90
8862;DHT22;4799;50.996;4.754;2023-08-06T05:43:38;14.30;99.90
8862;DHT22;4799;50.996;4.754;2023-08-06T05:46:04;14.20;99.90
8862;DHT22;4799;50.996;4.754;2023-08-06T05:48:30;14.20;99.90
8862;DHT22;4799;50.996;4.754;2023-08-06T05:50:57;14.20;99.90
8862;DHT22;4799;50.996;4.754;2023-08-06T05:53:24;14.20;99.90
8862;DHT22;4799;50.996;4.754;2023-08-06T05:55:50;14.20;99.90
8862;DHT22;4799;50.996;4.754;2023-08-06T05:58:16;14.20;99.90
8862;DHT22;4799;50.996;4.754;2023-08-06T06:00:41;14.10;99.90
8862;DHT22;4799;50.996;4.754;2023-08-06T06:03:07;14.10;99.90
8862;DHT22;4799;50.996;4.754;2023-08-06T06:05:33;14.10;99.90
8862;DHT22;4799;50.996;4.754;2023-08-06T06:07:59;14.10;99.90
8862;DHT22;4799;50.996;4.754;2023-08-06T06:10:24;14.10;99.90
8862;DHT22;4799;50.996;4.754;2023-08-06T06:12:50;14.00;99.90
8862;DHT22;4799;50.996;4.754;2023-08-06T06:15:16;14.00;99.90
8862;DHT22;4799;50.996;4.754;2023-08-06T06:17:41;14.00;99.90
8862;DHT22;4799;50.996;4.754;2023-08-06T06:20:07;14.00;99.90
8862;DHT22;4799;50.996;4.754;2023-08-06T06:22:33;14.10;99.90
8862;DHT22;4799;50.996;4.754;2023-08-06T06:24:59;14.10;99.90
8862;DHT22;4799;50.996;4.754;2023-08-06T06:27:24;14.10;99.90
8862;DHT22;4799;50.996;4.754;2023-08-06T06:29:50;14.10;99.90
8862;DHT22;4799;50.996;4.754;2023-08-06T06:32:17;14.10;99.90
8862;DHT22;4799;50.996;4.754;2023-08-06T06:34:43;14.20;99.90
8862;DHT22;4799;50.996;4.754;2023-08-06T06:37:09;14.20;99.90
8862;DHT22;4799;50.996;4.754;2023-08-06T06:39:34;14.20;99.90
8862;DHT22;4799;50.996;4.754;2023-08-06T06:42:00;14.20;99.90
8862;DHT22;4799;50.996;4.754;2023-08-06T06:44:26;14.20;99.90
8862;DHT22;4799;50.996;4.754;2023-08-06T06:46:51;14.30;99.90
8862;DHT22;4799;50.996;4.754;2023-08-06T06:49:17;14.30;99.90
8862;DHT22;4799;50.996;4.754;2023-08-06T06:51:43;14.40;99.90
8862;DHT22;4799;50.996;4.754;2023-08-06T06:54:09;14.40;99.90
8862;DHT22;4799;50.996;4.754;2023-08-06T06:56:34;14.50;99.90
8862;DHT22;4799;50.996;4.754;2023-08-06T06:59:00;14.50;99.90
8862;DHT22;4799;50.996;4.754;2023-08-06T07:01:26;14.50;99.90
8862;DHT22;4799;50.996;4.754;2023-08-06T07:03:51;14.50;99.90
8862;DHT22;4799;50.996;4.754;2023-08-06T07:06:17;14.50;99.90
8862;DHT22;4799;50.996;4.754;2023-08-06T07:08:44;14.50;99.90
8862;DHT22;4799;50.996;4.754;2023-08-06T07:11:10;14.50;99.90
8862;DHT22;4799;50.996;4.754;2023-08-06T07:13:35;14.50;99.90
8862;DHT22;4799;50.996;4.754;2023-08-06T07:16:02;14.50;99.90
8862;DHT22;4799;50.996;4.754;2023-08-06T07:18:28;14.50;99.90
8862;DHT22;4799;50.996;4.754;2023-08-06T07:20:55;14.60;99.90
8862;DHT22;4799;50.996;4.754;2023-08-06T07:23:22;14.50;99.90
8862;DHT22;4799;50.996;4.754;2023-08-06T07:25:48;14.50;99.90
8862;DHT22;4799;50.996;4.754;2023-08-06T07:28:14;14.50;99.90
8862;DHT22;4799;50.996;4.754;2023-08-06T07:30:41;14.40;99.90
8862;DHT22;4799;50.996;4.754;2023-08-06T07:33:07;14.40;99.90
8862;DHT22;4799;50.996;4.754;2023-08-06T07:35:34;14.40;99.90
8862;DHT22;4799;50.996;4.754;2023-08-06T07:37:59;14.40;99.90
8862;DHT22;4799;50.996;4.754;2023-08-06T07:40:25;14.40;99.90
8862;DHT22;4799;50.996;4.754;2023-08-06T07:42:51;14.50;99.90
8862;DHT22;4799;50.996;4.754;2023-08-06T07:45:17;14.60;99.90
8862;DHT22;4799;50.996;4.754;2023-08-06T07:47:43;14.60;99.90
8862;DHT22;4799;50.996;4.754;2023-08-06T07:50:09;14.60;99.90
8862;DHT22;4799;50.996;4.754;2023-08-06T07:52:35;14.70;99.90
8862;DHT22;4799;50.996;4.754;2023-08-06T07:55:01;14.70;99.90
8862;DHT22;4799;50.996;4.754;2023-08-06T07:57:30;14.80;99.90
8862;DHT22;4799;50.996;4.754;2023-08-06T07:59:56;14.80;99.90
8862;DHT22;4799;50.996;4.754;2023-08-06T08:02:22;14.80;99.90
8862;DHT22;4799;50.996;4.754;2023-08-06T08:04:48;14.80;99.90
8862;DHT22;4799;50.996;4.754;2023-08-06T08:07:14;14.80;99.90
8862;DHT22;4799;50.996;4.754;2023-08-06T08:09:40;14.80;99.90
8862;DHT22;4799;50.996;4.754;2023-08-06T08:12:06;14.80;99.90
8862;DHT22;4799;50.996;4.754;2023-08-06T08:14:32;14.80;99.90
8862;DHT22;4799;50.996;4.754;2023-08-06T08:17:03;14.80;99.90
8862;DHT22;4799;50.996;4.754;2023-08-06T08:19:29;14.90;99.90
8862;DHT22;4799;50.996;4.754;2023-08-06T08:21:55;15.00;99.90
8862;DHT22;4799;50.996;4.754;2023-08-06T08:24:21;15.10;99.90
8862;DHT22;4799;50.996;4.754;2023-08-06T08:26:52;15.20;99.90
8862;DHT22;4799;50.996;4.754;2023-08-06T08:29:19;15.20;99.90
8862;DHT22;4799;50.996;4.754;2023-08-06T08:31:49;15.30;99.90
8862;DHT22;4799;50.996;4.754;2023-08-06T08:34:18;15.40;99.90
8862;DHT22;4799;50.996;4.754;2023-08-06T08:36:44;15.40;99.90
8862;DHT22;4799;50.996;4.754;2023-08-06T08:39:13;15.50;99.90
8862;DHT22;4799;50.996;4.754;2023-08-06T08:41:39;15.40;99.90
8862;DHT22;4799;50.996;4.754;2023-08-06T08:44:08;15.40;99.90
8862;DHT22;4799;50.996;4.754;2023-08-06T08:46:36;15.40;99.90
8862;DHT22;4799;50.996;4.754;2023-08-06T08:49:04;15.40;99.90
8862;DHT22;4799;50.996;4.754;2023-08-06T08:51:30;15.40;99.90
8862;DHT22;4799;50.996;4.754;2023-08-06T08:53:56;15.40;99.90
8862;DHT22;4799;50.996;4.754;2023-08-06T08:56:23;15.30;99.90
8862;DHT22;4799;50.996;4.754;2023-08-06T08:58:50;15.30;99.90
8862;DHT22;4799;50.996;4.754;2023-08-06T09:01:17;15.30;99.90
8862;DHT22;4799;50.996;4.754;2023-08-06T09:03:43;15.30;99.90
8862;DHT22;4799;50.996;4.754;2023-08-06T09:06:11;15.20;99.90
8862;DHT22;4799;50.996;4.754;2023-08-06T09:08:43;15.20;99.90
8862;DHT22;4799;50.996;4.754;2023-08-06T09:11:12;15.20;99.90
8862;DHT22;4799;50.996;4.754;2023-08-06T09:13:38;15.20;99.90
8862;DHT22;4799;50.996;4.754;2023-08-06T09:16:04;15.30;99.90
8862;DHT22;4799;50.996;4.754;2023-08-06T09:18:30;15.30;99.90
8862;DHT22;4799;50.996;4.754;2023-08-06T09:20:57;15.30;99.90
8862;DHT22;4799;50.996;4.754;2023-08-06T09:23:30;15.40;99.90
8862;DHT22;4799;50.996;4.754;2023-08-06T09:25:57;15.70;99.90
8862;DHT22;4799;50.996;4.754;2023-08-06T09:28:23;15.80;99.90
8862;DHT22;4799;50.996;4.754;2023-08-06T09:30:50;15.90;99.90
8862;DHT22;4799;50.996;4.754;2023-08-06T09:33:18;16.10;99.90
8862;DHT22;4799;50.996;4.754;2023-08-06T09:35:46;16.10;99.90
8862;DHT22;4799;50.996;4.754;2023-08-06T09:38:12;16.10;99.90
8862;DHT22;4799;50.996;4.754;2023-08-06T09:40:39;16.10;99.90
8862;DHT22;4799;50.996;4.754;2023-08-06T09:43:05;16.00;99.90
8862;DHT22;4799;50.996;4.754;2023-08-06T09:45:36;16.00;99.90
8862;DHT22;4799;50.996;4.754;2023-08-06T09:48:06;15.90;99.90
8862;DHT22;4799;50.996;4.754;2023-08-06T09:50:34;15.90;99.90
8862;DHT22;4799;50.996;4.754;2023-08-06T09:53:04;15.80;99.90
8862;DHT22;4799;50.996;4.754;2023-08-06T09:55:32;15.70;99.90
8862;DHT22;4799;50.996;4.754;2023-08-06T09:57:59;15.60;99.90
8862;DHT22;4799;50.996;4.754;2023-08-06T10:00:25;15.50;99.90
8862;DHT22;4799;50.996;4.754;2023-08-06T10:02:53;15.50;99.90
8862;DHT22;4799;50.996;4.754;2023-08-06T10:05:22;15.40;99.90
8862;DHT22;4799;50.996;4.754;2023-08-06T10:07:49;15.40;99.90
8862;DHT22;4799;50.996;4.754;2023-08-06T10:10:16;15.40;99.90
8862;DHT22;4799;50.996;4.754;2023-08-06T10:12:46;15.30;99.90
8862;DHT22;4799;50.996;4.754;2023-08-06T10:15:16;15.20;99.90
8862;DHT22;4799;50.996;4.754;2023-08-06T10:17:43;15.20;99.90
8862;DHT22;4799;50.996;4.754;2023-08-06T10:20:11;15.30;99.90
8862;DHT22;4799;50.996;4.754;2023-08-06T10:22:43;15.30;99.90
8862;DHT22;4799;50.996;4.754;2023-08-06T10:25:09;15.20;99.90
8862;DHT22;4799;50.996;4.754;2023-08-06T10:27:40;15.20;99.90
8862;DHT22;4799;50.996;4.754;2023-08-06T10:30:23;15.20;99.90
8862;DHT22;4799;50.996;4.754;2023-08-06T10:32:50;15.30;99.90
8862;DHT22;4799;50.996;4.754;2023-08-06T10:38:11;15.30;99.90
8862;DHT22;4799;50.996;4.754;2023-08-06T10:40:39;15.30;99.90
8862;DHT22;4799;50.996;4.754;2023-08-06T10:43:05;15.40;99.90
8862;DHT22;4799;50.996;4.754;2023-08-06T10:45:37;15.50;99.90
8862;DHT22;4799;50.996;4.754;2023-08-06T10:48:03;15.60;99.90
8862;DHT22;4799;50.996;4.754;2023-08-06T10:50:30;15.70;99.90
8862;DHT22;4799;50.996;4.754;2023-08-06T10:52:57;15.80;99.90
8862;DHT22;4799;50.996;4.754;2023-08-06T10:55:25;15.80;99.90
8862;DHT22;4799;50.996;4.754;2023-08-06T10:57:51;15.70;99.90
8862;DHT22;4799;50.996;4.754;2023-08-06T11:00:17;15.50;99.90
8862;DHT22;4799;50.996;4.754;2023-08-06T11:02:43;15.40;99.90
8862;DHT22;4799;50.996;4.754;2023-08-06T11:05:11;15.30;99.90
8862;DHT22;4799;50.996;4.754;2023-08-06T11:07:38;15.20;99.90
8862;DHT22;4799;50.996;4.754;2023-08-06T11:10:09;15.30;99.90
8862;DHT22;4799;50.996;4.754;2023-08-06T11:12:35;15.30;99.90
8862;DHT22;4799;50.996;4.754;2023-08-06T11:15:01;15.40;99.90
8862;DHT22;4799;50.996;4.754;2023-08-06T11:17:28;15.50;99.90
8862;DHT22;4799;50.996;4.754;2023-08-06T11:19:54;15.60;99.90
8862;DHT22;4799;50.996;4.754;2023-08-06T11:22:21;15.70;99.90
8862;DHT22;4799;50.996;4.754;2023-08-06T11:24:50;15.80;99.90
8862;DHT22;4799;50.996;4.754;2023-08-06T11:27:17;16.00;99.90
8862;DHT22;4799;50.996;4.754;2023-08-06T11:29:43;16.10;99.90
8862;DHT22;4799;50.996;4.754;2023-08-06T11:32:10;16.10;99.90
8862;DHT22;4799;50.996;4.754;2023-08-06T11:34:36;16.10;99.90
8862;DHT22;4799;50.996;4.754;2023-08-06T11:37:03;16.00;99.90
8862;DHT22;4799;50.996;4.754;2023-08-06T11:39:36;15.90;99.90
8862;DHT22;4799;50.996;4.754;2023-08-06T11:42:06;15.90;99.90
8862;DHT22;4799;50.996;4.754;2023-08-06T11:44:35;15.70;99.90
8862;DHT22;4799;50.996;4.754;2023-08-06T11:47:03;15.60;99.90
8862;DHT22;4799;50.996;4.754;2023-08-06T11:49:41;15.50;99.90
8862;DHT22;4799;50.996;4.754;2023-08-06T11:52:14;15.60;99.90
8862;DHT22;4799;50.996;4.754;2023-08-06T11:54:40;15.70;99.90
8862;DHT22;4799;50.996;4.754;2023-08-06T11:57:06;15.80;99.90
8862;DHT22;4799;50.996;4.754;2023-08-06T11:59:32;15.80;99.90
8862;DHT22;4799;50.996;4.754;2023-08-06T12:02:01;15.80;99.90
8862;DHT22;4799;50.996;4.754;2023-08-06T12:04:27;15.90;99.90
8862;DHT22;4799;50.996;4.754;2023-08-06T12:06:52;16.00;99.90
8862;DHT22;4799;50.996;4.754;2023-08-06T12:09:18;16.20;99.90
8862;DHT22;4799;50.996;4.754;2023-08-06T12:11:44;16.30;99.90
8862;DHT22;4799;50.996;4.754;2023-08-06T12:14:10;16.40;99.90
8862;DHT22;4799;50.996;4.754;2023-08-06T12:16:36;16.40;99.90
8862;DHT22;4799;50.996;4.754;2023-08-06T12:19:01;16.30;99.90
8862;DHT22;4799;50.996;4.754;2023-08-06T12:21:27;16.20;99.90
8862;DHT22;4799;50.996;4.754;2023-08-06T12:23:53;16.10;99.90
8862;DHT22;4799;50.996;4.754;2023-08-06T12:26:18;16.00;99.90
8862;DHT22;4799;50.996;4.754;2023-08-06T12:28:44;15.90;99.90
8862;DHT22;4799;50.996;4.754;2023-08-06T12:31:10;15.70;99.90
8862;DHT22;4799;50.996;4.754;2023-08-06T12:33:35;15.70;99.90
8862;DHT22;4799;50.996;4.754;2023-08-06T12:36:01;15.50;99.90
8862;DHT22;4799;50.996;4.754;2023-08-06T12:38:27;15.40;99.90
8862;DHT22;4799;50.996;4.754;2023-08-06T12:40:52;15.40;99.90
8862;DHT22;4799;50.996;4.754;2023-08-06T12:43:18;15.40;99.90
8862;DHT22;4799;50.996;4.754;2023-08-06T12:45:44;15.30;99.90
8862;DHT22;4799;50.996;4.754;2023-08-06T12:48:09;15.20;99.90
8862;DHT22;4799;50.996;4.754;2023-08-06T12:50:36;15.20;99.90
8862;DHT22;4799;50.996;4.754;2023-08-06T12:53:01;15.20;99.90
8862;DHT22;4799;50.996;4.754;2023-08-06T12:55:27;15.10;99.90
8862;DHT22;4799;50.996;4.754;2023-08-06T12:57:53;15.20;99.90
8862;DHT22;4799;50.996;4.754;2023-08-06T13:00:19;15.20;99.90
8862;DHT22;4799;50.996;4.754;2023-08-06T13:02:44;15.30;99.90
8862;DHT22;4799;50.996;4.754;2023-08-06T13:05:10;15.30;99.90
8862;DHT22;4799;50.996;4.754;2023-08-06T13:07:36;15.30;99.90
8862;DHT22;4799;50.996;4.754;2023-08-06T13:10:01;15.30;99.90
8862;DHT22;4799;50.996;4.754;2023-08-06T13:12:27;15.30;99.90
8862;DHT22;4799;50.996;4.754;2023-08-06T13:14:53;15.30;99.90
8862;DHT22;4799;50.996;4.754;2023-08-06T13:17:20;15.30;99.90
8862;DHT22;4799;50.996;4.754;2023-08-06T13:19:46;15.30;99.90
8862;DHT22;4799;50.996;4.754;2023-08-06T13:22:12;15.30;99.90
8862;DHT22;4799;50.996;4.754;2023-08-06T13:24:37;15.30;99.90
8862;DHT22;4799;50.996;4.754;2023-08-06T13:27:03;15.30;99.90
8862;DHT22;4799;50.996;4.754;2023-08-06T13:29:29;15.30;99.90
8862;DHT22;4799;50.996;4.754;2023-08-06T13:31:55;15.30;99.90
8862;DHT22;4799;50.996;4.754;2023-08-06T13:34:21;15.20;99.90
8862;DHT22;4799;50.996;4.754;2023-08-06T13:36:46;15.10;99.90
8862;DHT22;4799;50.996;4.754;2023-08-06T13:39:12;15.00;99.90
8862;DHT22;4799;50.996;4.754;2023-08-06T13:41:41;14.90;99.90
8862;DHT22;4799;50.996;4.754;2023-08-06T13:44:07;14.90;99.90
8862;DHT22;4799;50.996;4.754;2023-08-06T13:46:33;14.80;99.90
8862;DHT22;4799;50.996;4.754;2023-08-06T13:48:58;14.80;99.90
8862;DHT22;4799;50.996;4.754;2023-08-06T13:51:24;14.70;99.90
8862;DHT22;4799;50.996;4.754;2023-08-06T13:53:50;14.60;99.90
8862;DHT22;4799;50.996;4.754;2023-08-06T13:56:17;14.60;99.90
8862;DHT22;4799;50.996;4.754;2023-08-06T13:58:43;14.50;99.90
8862;DHT22;4799;50.996;4.754;2023-08-06T14:01:12;14.50;99.90
8862;DHT22;4799;50.996;4.754;2023-08-06T14:03:38;14.50;99.90
8862;DHT22;4799;50.996;4.754;2023-08-06T14:06:04;14.50;99.90
8862;DHT22;4799;50.996;4.754;2023-08-06T14:08:30;14.50;99.90
8862;DHT22;4799;50.996;4.754;2023-08-06T14:10:55;14.50;99.90
8862;DHT22;4799;50.996;4.754;2023-08-06T14:13:22;14.40;99.90
8862;DHT22;4799;50.996;4.754;2023-08-06T14:15:48;14.40;99.90
8862;DHT22;4799;50.996;4.754;2023-08-06T14:18:14;14.40;99.90
8862;DHT22;4799;50.996;4.754;2023-08-06T14:20:41;14.40;99.90
8862;DHT22;4799;50.996;4.754;2023-08-06T14:23:07;14.30;99.90
8862;DHT22;4799;50.996;4.754;2023-08-06T14:25:33;14.20;99.90
8862;DHT22;4799;50.996;4.754;2023-08-06T14:27:58;14.20;99.90
8862;DHT22;4799;50.996;4.754;2023-08-06T14:30:24;14.20;99.90
8862;DHT22;4799;50.996;4.754;2023-08-06T14:32:50;14.30;99.90
8862;DHT22;4799;50.996;4.754;2023-08-06T14:35:16;14.30;99.90
8862;DHT22;4799;50.996;4.754;2023-08-06T14:37:41;14.30;99.90
8862;DHT22;4799;50.996;4.754;2023-08-06T14:40:08;14.40;99.90
8862;DHT22;4799;50.996;4.754;2023-08-06T14:42:33;14.40;99.90
8862;DHT22;4799;50.996;4.754;2023-08-06T14:44:59;14.40;99.90
8862;DHT22;4799;50.996;4.754;2023-08-06T14:47:25;14.40;99.90
8862;DHT22;4799;50.996;4.754;2023-08-06T14:49:51;14.40;99.90
8862;DHT22;4799;50.996;4.754;2023-08-06T14:52:16;14.40;99.90
8862;DHT22;4799;50.996;4.754;2023-08-06T14:54:42;14.50;99.90
8862;DHT22;4799;50.996;4.754;2023-08-06T14:57:09;14.60;99.90
8862;DHT22;4799;50.996;4.754;2023-08-06T14:59:35;14.80;99.90
8862;DHT22;4799;50.996;4.754;2023-08-06T15:02:01;14.90;99.90
8862;DHT22;4799;50.996;4.754;2023-08-06T15:04:27;14.90;99.90
8862;DHT22;4799;50.996;4.754;2023-08-06T15:06:53;15.00;99.90
8862;DHT22;4799;50.996;4.754;2023-08-06T15:09:19;15.10;99.90
8862;DHT22;4799;50.996;4.754;2023-08-06T15:11:47;15.20;99.90
8862;DHT22;4799;50.996;4.754;2023-08-06T15:14:13;15.30;99.90
8862;DHT22;4799;50.996;4.754;2023-08-06T15:16:40;15.40;99.90
8862;DHT22;4799;50.996;4.754;2023-08-06T15:19:06;15.40;99.90
8862;DHT22;4799;50.996;4.754;2023-08-06T15:21:31;15.30;99.90
8862;DHT22;4799;50.996;4.754;2023-08-06T15:23:57;15.20;99.90
8862;DHT22;4799;50.996;4.754;2023-08-06T15:26:23;15.10;99.90
8862;DHT22;4799;50.996;4.754;2023-08-06T15:28:49;15.00;99.90
8862;DHT22;4799;50.996;4.754;2023-08-06T15:31:14;14.90;99.90
8862;DHT22;4799;50.996;4.754;2023-08-06T15:33:40;14.90;99.90
8862;DHT22;4799;50.996;4.754;2023-08-06T15:36:06;14.90;99.90
8862;DHT22;4799;50.996;4.754;2023-08-06T15:38:32;14.80;99.90
8862;DHT22;4799;50.996;4.754;2023-08-06T15:40:57;14.80;99.90
8862;DHT22;4799;50.996;4.754;2023-08-06T15:43:23;14.80;99.90
8862;DHT22;4799;50.996;4.754;2023-08-06T15:45:49;14.70;99.90
8862;DHT22;4799;50.996;4.754;2023-08-06T15:48:15;14.60;99.90
8862;DHT22;4799;50.996;4.754;2023-08-06T15:50:41;14.50;99.90
8862;DHT22;4799;50.996;4.754;2023-08-06T15:53:07;14.50;99.90
8862;DHT22;4799;50.996;4.754;2023-08-06T15:55:32;14.40;99.90
8862;DHT22;4799;50.996;4.754;2023-08-06T15:58:03;14.40;99.90
8862;DHT22;4799;50.996;4.754;2023-08-06T16:00:29;14.40;99.90